Sun Valley, California
Current Conditions -  °F | °C
As of 1:53 AM on Saturday 29 Nov 2014 (Local Time) from KBUR Reporting Station
Clear Clear  
Wind Chill: 52°   Ceiling: Unl
Heat Index: 52°   Visibility: 10mi
Dew Point: 33°   Wind: 0mph
Humidity: 49%   Direction: NA
Pressure: 29.89"   Gusts: NA
Location:  34.22°N, 118.37°W
Report Text: KBUR 290953Z 00000KT 10SM CLR 11/01 A2989 RMK AO2 SLP110 T01110006
Loading
Personal Weather Stations






























Interactive Weather Map New forecast layout! Learn more

10-Day Weather Forecast

Advertisements
Track Severe Weather on mobile